Flight Track Log - Related Links

Times and Time Zones

All times are in EDT time to prevent confusion due to time zone crossing. See the TAM3133 flight status page for this flight to view local times or setup timezone preferences in your user account.

Time Position Orientation Groundspeed Altitude Reporting Facility
EDT Latitude Longitude Course Direction KTS MPH feet Rate Location/Type
Sun 04:08:00 PM -21.6905 -42.9020 239° Southwest  Level Estimated
Sun 04:09:00 PM -21.7376 -42.9901 240° Southwest  Level Estimated
Sun 04:10:00 PM -21.7845 -43.0782 240° Southwest  Level Estimated
Sun 04:11:00 PM -21.8315 -43.1664 240° Southwest  Level Estimated
Sun 04:12:00 PM -21.8784 -43.2546 240° Southwest  Level Estimated
Sun 04:13:00 PM -21.9253 -43.3429 240° Southwest  Level Estimated
Sun 04:14:00 PM -21.9721 -43.4313 240° Southwest  Level Estimated
Sun 04:15:00 PM -22.0189 -43.5197 240° Southwest  Level Estimated
Sun 04:16:00 PM -22.0656 -43.6081 240° Southwest  Level Estimated
Sun 04:17:00 PM -22.1122 -43.6967 240° Southwest  Level Estimated
Sun 04:18:00 PM -22.1589 -43.7852 240° Southwest  Level Estimated
Sun 04:19:00 PM -22.2055 -43.8739 240° Southwest  Level Estimated
Sun 04:20:00 PM -22.2520 -43.9626 240° Southwest  Level Estimated
Sun 04:21:00 PM -22.2985 -44.0513 240° Southwest  Level Estimated
Sun 04:22:00 PM -22.3449 -44.1402 241° Southwest  Level Estimated
Sun 04:23:00 PM -22.3913 -44.2290 241° Southwest  Level Estimated
Sun 04:24:00 PM -22.4376 -44.3180 241° Southwest  Level Estimated
Sun 04:25:00 PM -22.4839 -44.4070 241° Southwest  Level Estimated
Sun 04:26:00 PM -22.5301 -44.4960 241° Southwest  Level Estimated
Sun 04:27:00 PM -22.5763 -44.5852 241° Southwest  Level Estimated
Sun 04:28:00 PM -22.6225 -44.6743 241° Southwest  Level Estimated
Sun 04:29:00 PM -22.6686 -44.7636 241° Southwest  Level Estimated
Sun 04:30:00 PM -22.7146 -44.8529 241° Southwest  Level Estimated
Sun 04:31:00 PM -22.7606 -44.9422 241° Southwest  Level Estimated
Sun 04:32:00 PM -22.8065 -45.0317 241° Southwest  Level Estimated
Sun 04:33:00 PM -22.8524 -45.1211 241° Southwest  Level Estimated
Sun 04:34:00 PM -22.8983 -45.2107 241° Southwest  Level Estimated
Sun 04:35:00 PM -22.9440 -45.3003 241° Southwest  Level Estimated
Sun 04:36:00 PM -22.9898 -45.3899 241° Southwest  Level Estimated
Sun 04:37:00 PM -23.0355 -45.4797 241° Southwest  Level Estimated
Sun 04:38:00 PM -23.0811 -45.5694 241° Southwest  Level Estimated
Sun 04:39:00 PM -23.1267 -45.6593 241° Southwest  Level Estimated
Sun 04:40:00 PM -23.1723 -45.7492 241° Southwest  Level Estimated
Sun 04:41:00 PM -23.2177 -45.8391 241° Southwest  Level Estimated
Sun 04:42:00 PM -23.2632 -45.9292 241° Southwest  Level Estimated
Sun 04:43:00 PM -23.3086 -46.0192 241° Southwest  Level Estimated
Sun 04:44:00 PM -23.3539 -46.1094 241° Southwest  Level Estimated
Sun 04:45:00 PM -23.3992 -46.1996 241° Southwest  Level Estimated
Sun 04:46:00 PM -23.4444 -46.2899 241° Southwest  Level Estimated
Sun 04:47:00 PM -23.4896 -46.3802 241° Southwest  Level Estimated
Sun 04:48:00 PM -23.5347 -46.4706 241° Southwest  Level Estimated
Sun 04:49:00 PM -23.5798 -46.5611 241° Southwest  Level Estimated
Sun 04:50:00 PM -23.6248 -46.6516 241° Southwest  Level Estimated
Sun 04:51:00 PM -23.6267 -46.6554 241° Southwest  Level Estimated
Sun 04:52:00 PM -23.6267 -46.6554 114° Southeast  Level Estimated
Sun 04:53:00 PM -23.6267 -46.6554 114° Southeast  Level Estimated
Sun 04:54:00 PM -23.6267 -46.6554 114° Southeast  Level Estimated
Sun 04:55:00 PM -23.6267 -46.6554 114° Southeast  Level Estimated
Sun 04:56:00 PM -23.6267 -46.6554 114° Southeast  Level Estimated
Sun 04:57:00 PM -23.6267 -46.6554 114° Southeast  Level Estimated
Sun 04:58:00 PM -23.6267 -46.6554 114° Southeast  Level Estimated
Sun 04:59:00 PM -23.6267 -46.6554 114° Southeast  Level Estimated
Sun 05:00:00 PM -23.6267 -46.6554 114° Southeast  Level Estimated
Sun 05:01:00 PM -23.6267 -46.6554 114° Southeast  Level Estimated
Sun 05:02:00 PM -23.6267 -46.6554 114° Southeast  Level Estimated
Sun 05:03:00 PM -23.6267 -46.6554 114° Southeast  Level Estimated
Sun 05:04:00 PM -23.6267 -46.6554 114° Southeast  Level Estimated
Sun 05:05:00 PM -23.6267 -46.6554 114° Southeast  Level Estimated
Sun 05:06:00 PM -23.6267 -46.6554 114° Southeast  Level Estimated
Sun 05:07:00 PM -23.6267 -46.6554 114° Southeast  Level Estimated
Sun 05:08:00 PM -23.6267 -46.6554 114° Southeast  Level Estimated
Sun 05:09:00 PM -23.6267 -46.6554 114° Southeast  Level Estimated
Sun 05:10:00 PM -23.6267 -46.6554 114° Southeast  Level Estimated
Sun 05:11:00 PM -23.6267 -46.6554 114° Southeast  Level Estimated
Sun 05:12:00 PM -23.6267 -46.6554 114° Southeast  Level Estimated
Sun 05:13:00 PM -23.6267 -46.6554 114° Southeast  Level Estimated
Sun 05:14:00 PM -23.6267 -46.6554 114° Southeast  Level Estimated
Sun 05:15:00 PM -23.6267 -46.6554 114° Southeast  Level Estimated
Sun 05:16:00 PM -23.6267 -46.6554 114° Southeast  Level Estimated
Sun 05:17:00 PM -23.6267 -46.6554 114° Southeast  Level Estimated
Sun 05:18:00 PM -23.6267 -46.6554 114° Southeast  Level Estimated
Sun 05:19:00 PM -23.6267 -46.6554 114° Southeast  Level Estimated

Login

Don't have an account? Register now (free) for customized features, flight alerts, and more!